Unionville, New York
Current Conditions -  °F | °C
As of 9:08 AM on Wednesday 26 Nov 2014 (Local Time) from KFWN Reporting Station
Light Snow Light Snow  
Wind Chill: 28°   Ceiling: 1900
Heat Index: 34°   Visibility: 1.7mi
Dew Point: 32°   Wind: 7mph
Humidity: 92%   Direction: 30°NNE
Pressure: 30.13"   Gusts: NA
Location:  41.3°N, 74.56°W
Report Text: KFWN 261408Z AUTO 03006KT 1 3/4SM -SN BR FEW007 OVC019 01/00 A3013 RMK AO2 P0002 T00110000
Loading
Personal Weather Stations






























Interactive Weather Map New forecast layout! Learn more

10-Day Weather Forecast

Advertisements
Track Severe Weather on mobile